Airfield :
LOGIN :

Register | Disclaimer

   EN    FR    IT 

 










Legend :    VFR   Marginal VFR   IFR   Intensive IFR   Very Intensive IFR
Visi :
Ceiling :
>= 8 km
>= 3000ft
5 to 8 km
1000 to 3000 ft
1500m to 5 km
500 to 1000 ft
800 to 1500m
200 to 500 ft
< 800m
< 200 ft
Symbols :   Thunderstorms  Fog  Heavy snow  Heavy precipitations  Wind > 20 kt
SIGMETs :     Misc.  Thunderstorms  Icing  Turbulence  Mountain Waves  Volcanic Ashes






- Airport Elevation : 162 ft
- IATA code : BOD


LFBD - Bordeaux / Merignac

CURRENT METAR :
  • 101300Z AUTO 17008KT CAVOK 13/06 Q1026 NOSIG

EXPIRED METARs :
  • 101230Z AUTO 16007KT CAVOK 12/06 Q1027 NOSIG
  • 101200Z AUTO 16009KT CAVOK 12/05 Q1027 NOSIG
  • 101130Z AUTO 16008KT CAVOK 11/05 Q1028 NOSIG
  • 101100Z AUTO 17007KT 140V200 CAVOK 11/06 Q1028 NOSIG
  • 101030Z AUTO 16008KT CAVOK 10/05 Q1029 NOSIG

TAF TAF LFBD
Valid from the 10 at 12:00 until the 11 at 18:00 UTC


101100Z 1012/1118 17005KT CAVOK TX12/1013Z TN05/1106Z
BECMG 1022/1024 OVC040
BECMG 1104/1106 25010KT 3000 RA BKN008 OVC020
BECMG 1108/1110 9999 NSW SCT030
ATIS : +33 5 57 92 81 04



MET'MAP, your aeronautical weather chart ! - Copyright ORBIFLY December 2007 - Disclaimer

ORBIFLY MET'MAP TEAM :

Programming & Development : Alexandra Zaïnal
Concept & original design : Baudouin d'Aumeries
Assistance for programming : Marc-Olivier Méhu
Technical & hardware support : Manuel Goepfert

Contact : metmap@orbifly.com




SOURCES & CREDITS :

   NOAA